sensor_id;sensor_type;location;lat;lon;timestamp;P1;durP1;ratioP1;P2;durP2;ratioP2
35518;SDS011;21627;48.216;16.482;2023-11-21T00:01:27;5.47;;;1.70;;
35518;SDS011;21627;48.216;16.482;2023-11-21T00:03:54;7.15;;;2.08;;
35518;SDS011;21627;48.216;16.482;2023-11-21T00:06:21;5.50;;;1.60;;
35518;SDS011;21627;48.216;16.482;2023-11-21T00:08:48;4.90;;;1.50;;
35518;SDS011;21627;48.216;16.482;2023-11-21T00:11:15;6.70;;;2.00;;
35518;SDS011;21627;48.216;16.482;2023-11-21T00:13:43;8.45;;;1.75;;
35518;SDS011;21627;48.216;16.482;2023-11-21T00:16:10;8.50;;;1.48;;
35518;SDS011;21627;48.216;16.482;2023-11-21T00:18:37;8.60;;;1.80;;
35518;SDS011;21627;48.216;16.482;2023-11-21T00:21:04;5.97;;;1.15;;
35518;SDS011;21627;48.216;16.482;2023-11-21T00:23:32;8.30;;;1.77;;
35518;SDS011;21627;48.216;16.482;2023-11-21T00:25:59;5.95;;;1.85;;
35518;SDS011;21627;48.216;16.482;2023-11-21T00:28:26;6.60;;;1.75;;
35518;SDS011;21627;48.216;16.482;2023-11-21T00:30:53;8.60;;;1.90;;
35518;SDS011;21627;48.216;16.482;2023-11-21T00:33:20;9.00;;;1.80;;
35518;SDS011;21627;48.216;16.482;2023-11-21T00:35:47;6.07;;;2.13;;
35518;SDS011;21627;48.216;16.482;2023-11-21T00:38:14;8.80;;;1.58;;
35518;SDS011;21627;48.216;16.482;2023-11-21T00:40:41;6.45;;;2.08;;
35518;SDS011;21627;48.216;16.482;2023-11-21T00:43:09;5.15;;;1.80;;
35518;SDS011;21627;48.216;16.482;2023-11-21T00:45:36;6.03;;;1.95;;
35518;SDS011;21627;48.216;16.482;2023-11-21T00:48:03;9.02;;;2.00;;
35518;SDS011;21627;48.216;16.482;2023-11-21T00:50:31;8.38;;;1.90;;
35518;SDS011;21627;48.216;16.482;2023-11-21T00:52:58;5.22;;;1.83;;
35518;SDS011;21627;48.216;16.482;2023-11-21T00:55:25;4.20;;;1.65;;
35518;SDS011;21627;48.216;16.482;2023-11-21T00:57:54;3.97;;;1.83;;
35518;SDS011;21627;48.216;16.482;2023-11-21T01:00:21;5.28;;;1.80;;
35518;SDS011;21627;48.216;16.482;2023-11-21T01:02:49;6.68;;;1.83;;
35518;SDS011;21627;48.216;16.482;2023-11-21T01:05:17;12.15;;;1.92;;
35518;SDS011;21627;48.216;16.482;2023-11-21T01:07:44;9.90;;;2.03;;
35518;SDS011;21627;48.216;16.482;2023-11-21T01:10:11;7.05;;;1.90;;
35518;SDS011;21627;48.216;16.482;2023-11-21T01:12:39;6.43;;;1.60;;
35518;SDS011;21627;48.216;16.482;2023-11-21T01:15:06;5.13;;;1.63;;
35518;SDS011;21627;48.216;16.482;2023-11-21T01:17:34;8.68;;;1.75;;
35518;SDS011;21627;48.216;16.482;2023-11-21T01:20:02;7.50;;;2.17;;
35518;SDS011;21627;48.216;16.482;2023-11-21T01:22:33;5.03;;;1.75;;
35518;SDS011;21627;48.216;16.482;2023-11-21T01:25:00;6.97;;;1.95;;
35518;SDS011;21627;48.216;16.482;2023-11-21T01:27:27;5.57;;;2.17;;
35518;SDS011;21627;48.216;16.482;2023-11-21T01:29:54;8.05;;;2.50;;
35518;SDS011;21627;48.216;16.482;2023-11-21T01:32:21;14.75;;;1.88;;
35518;SDS011;21627;48.216;16.482;2023-11-21T01:34:50;5.82;;;2.13;;
35518;SDS011;21627;48.216;16.482;2023-11-21T01:37:17;8.45;;;2.20;;
35518;SDS011;21627;48.216;16.482;2023-11-21T01:39:44;4.85;;;1.92;;
35518;SDS011;21627;48.216;16.482;2023-11-21T01:45:01;4.45;;;1.80;;
35518;SDS011;21627;48.216;16.482;2023-11-21T01:47:33;6.18;;;2.22;;
35518;SDS011;21627;48.216;16.482;2023-11-21T01:50:02;10.25;;;2.25;;
35518;SDS011;21627;48.216;16.482;2023-11-21T01:52:36;8.68;;;2.00;;
35518;SDS011;21627;48.216;16.482;2023-11-21T01:55:05;7.93;;;2.30;;
35518;SDS011;21627;48.216;16.482;2023-11-21T01:57:38;5.03;;;1.85;;
35518;SDS011;21627;48.216;16.482;2023-11-21T02:00:05;9.50;;;2.50;;
35518;SDS011;21627;48.216;16.482;2023-11-21T02:02:42;7.78;;;2.13;;
35518;SDS011;21627;48.216;16.482;2023-11-21T02:05:14;8.68;;;1.90;;
35518;SDS011;21627;48.216;16.482;2023-11-21T02:07:45;8.68;;;2.38;;
35518;SDS011;21627;48.216;16.482;2023-11-21T02:10:16;5.70;;;1.92;;
35518;SDS011;21627;48.216;16.482;2023-11-21T02:12:49;8.13;;;1.80;;
35518;SDS011;21627;48.216;16.482;2023-11-21T02:15:17;10.93;;;2.30;;
35518;SDS011;21627;48.216;16.482;2023-11-21T02:17:47;7.68;;;2.22;;
35518;SDS011;21627;48.216;16.482;2023-11-21T02:20:21;6.70;;;1.95;;
35518;SDS011;21627;48.216;16.482;2023-11-21T02:22:55;3.95;;;1.92;;
35518;SDS011;21627;48.216;16.482;2023-11-21T02:25:31;9.13;;;2.10;;
35518;SDS011;21627;48.216;16.482;2023-11-21T02:28:01;9.05;;;1.83;;
35518;SDS011;21627;48.216;16.482;2023-11-21T02:30:30;7.38;;;2.17;;
35518;SDS011;21627;48.216;16.482;2023-11-21T02:32:59;6.60;;;2.17;;
35518;SDS011;21627;48.216;16.482;2023-11-21T02:35:27;9.30;;;2.33;;
35518;SDS011;21627;48.216;16.482;2023-11-21T02:37:58;5.25;;;2.53;;
35518;SDS011;21627;48.216;16.482;2023-11-21T02:40:25;6.30;;;2.28;;
35518;SDS011;21627;48.216;16.482;2023-11-21T02:42:53;7.82;;;2.13;;
35518;SDS011;21627;48.216;16.482;2023-11-21T02:45:21;9.88;;;2.65;;
35518;SDS011;21627;48.216;16.482;2023-11-21T02:47:48;6.97;;;2.38;;
35518;SDS011;21627;48.216;16.482;2023-11-21T02:50:16;8.93;;;3.05;;
35518;SDS011;21627;48.216;16.482;2023-11-21T02:52:45;5.38;;;2.20;;
35518;SDS011;21627;48.216;16.482;2023-11-21T02:55:13;6.72;;;2.35;;
35518;SDS011;21627;48.216;16.482;2023-11-21T02:57:40;6.15;;;2.03;;
35518;SDS011;21627;48.216;16.482;2023-11-21T03:00:08;9.52;;;2.88;;
35518;SDS011;21627;48.216;16.482;2023-11-21T03:02:42;9.98;;;2.25;;
35518;SDS011;21627;48.216;16.482;2023-11-21T03:05:10;8.25;;;2.63;;
35518;SDS011;21627;48.216;16.482;2023-11-21T03:07:38;11.32;;;2.63;;
35518;SDS011;21627;48.216;16.482;2023-11-21T03:10:07;7.55;;;2.92;;
35518;SDS011;21627;48.216;16.482;2023-11-21T03:12:38;8.30;;;3.03;;
35518;SDS011;21627;48.216;16.482;2023-11-21T03:15:06;6.05;;;2.35;;
35518;SDS011;21627;48.216;16.482;2023-11-21T03:17:35;7.95;;;2.42;;
35518;SDS011;21627;48.216;16.482;2023-11-21T03:20:03;7.88;;;2.83;;
35518;SDS011;21627;48.216;16.482;2023-11-21T03:22:31;9.02;;;2.55;;
35518;SDS011;21627;48.216;16.482;2023-11-21T03:24:59;6.82;;;2.70;;
35518;SDS011;21627;48.216;16.482;2023-11-21T03:27:27;11.77;;;2.78;;
35518;SDS011;21627;48.216;16.482;2023-11-21T03:29:54;8.98;;;3.08;;
35518;SDS011;21627;48.216;16.482;2023-11-21T03:32:22;7.45;;;2.28;;
35518;SDS011;21627;48.216;16.482;2023-11-21T03:34:53;7.13;;;2.45;;
35518;SDS011;21627;48.216;16.482;2023-11-21T03:37:23;7.00;;;2.40;;
35518;SDS011;21627;48.216;16.482;2023-11-21T03:39:55;7.07;;;2.72;;
35518;SDS011;21627;48.216;16.482;2023-11-21T03:42:23;6.30;;;2.65;;
35518;SDS011;21627;48.216;16.482;2023-11-21T03:44:53;12.00;;;3.03;;
35518;SDS011;21627;48.216;16.482;2023-11-21T03:47:21;4.60;;;2.22;;
35518;SDS011;21627;48.216;16.482;2023-11-21T03:49:48;5.43;;;2.30;;
35518;SDS011;21627;48.216;16.482;2023-11-21T03:52:15;5.03;;;2.42;;
35518;SDS011;21627;48.216;16.482;2023-11-21T03:54:43;7.38;;;2.45;;
35518;SDS011;21627;48.216;16.482;2023-11-21T03:57:11;7.68;;;2.40;;
35518;SDS011;21627;48.216;16.482;2023-11-21T03:59:42;8.32;;;2.80;;
35518;SDS011;21627;48.216;16.482;2023-11-21T04:02:09;6.35;;;2.30;;
35518;SDS011;21627;48.216;16.482;2023-11-21T04:04:37;5.53;;;2.30;;
35518;SDS011;21627;48.216;16.482;2023-11-21T04:07:04;10.90;;;2.70;;
35518;SDS011;21627;48.216;16.482;2023-11-21T04:09:31;10.95;;;2.78;;
35518;SDS011;21627;48.216;16.482;2023-11-21T04:11:59;6.43;;;2.63;;
35518;SDS011;21627;48.216;16.482;2023-11-21T04:14:26;12.35;;;2.85;;
35518;SDS011;21627;48.216;16.482;2023-11-21T04:16:53;5.55;;;2.40;;
35518;SDS011;21627;48.216;16.482;2023-11-21T04:19:21;6.85;;;2.63;;
35518;SDS011;21627;48.216;16.482;2023-11-21T04:21:48;8.52;;;3.30;;
35518;SDS011;21627;48.216;16.482;2023-11-21T04:24:16;7.95;;;2.95;;
35518;SDS011;21627;48.216;16.482;2023-11-21T04:26:43;12.90;;;2.80;;
35518;SDS011;21627;48.216;16.482;2023-11-21T04:29:11;6.00;;;2.90;;
35518;SDS011;21627;48.216;16.482;2023-11-21T04:31:38;6.88;;;2.97;;
35518;SDS011;21627;48.216;16.482;2023-11-21T04:34:05;8.30;;;2.75;;
35518;SDS011;21627;48.216;16.482;2023-11-21T04:36:32;10.00;;;2.97;;
35518;SDS011;21627;48.216;16.482;2023-11-21T04:39:01;8.50;;;2.78;;
35518;SDS011;21627;48.216;16.482;2023-11-21T04:41:28;6.40;;;2.67;;
35518;SDS011;21627;48.216;16.482;2023-11-21T04:43:57;8.85;;;2.63;;
35518;SDS011;21627;48.216;16.482;2023-11-21T04:46:27;8.23;;;3.05;;
35518;SDS011;21627;48.216;16.482;2023-11-21T04:48:54;5.78;;;2.70;;
35518;SDS011;21627;48.216;16.482;2023-11-21T04:51:21;9.50;;;2.90;;
35518;SDS011;21627;48.216;16.482;2023-11-21T04:53:48;6.25;;;2.42;;
35518;SDS011;21627;48.216;16.482;2023-11-21T04:56:16;8.98;;;2.60;;
35518;SDS011;21627;48.216;16.482;2023-11-21T04:58:43;10.48;;;2.90;;
35518;SDS011;21627;48.216;16.482;2023-11-21T05:01:10;9.30;;;2.72;;
35518;SDS011;21627;48.216;16.482;2023-11-21T05:03:38;9.25;;;3.03;;
35518;SDS011;21627;48.216;16.482;2023-11-21T05:06:06;5.85;;;2.33;;
35518;SDS011;21627;48.216;16.482;2023-11-21T05:08:35;4.90;;;2.15;;
35518;SDS011;21627;48.216;16.482;2023-11-21T05:11:03;12.32;;;2.78;;
35518;SDS011;21627;48.216;16.482;2023-11-21T05:13:30;10.02;;;2.50;;
35518;SDS011;21627;48.216;16.482;2023-11-21T05:15:59;7.50;;;3.22;;
35518;SDS011;21627;48.216;16.482;2023-11-21T05:18:30;6.93;;;2.75;;
35518;SDS011;21627;48.216;16.482;2023-11-21T05:20:57;9.82;;;3.05;;
35518;SDS011;21627;48.216;16.482;2023-11-21T05:23:24;9.68;;;3.15;;
35518;SDS011;21627;48.216;16.482;2023-11-21T05:25:51;6.75;;;3.00;;
35518;SDS011;21627;48.216;16.482;2023-11-21T05:28:18;10.35;;;2.67;;
35518;SDS011;21627;48.216;16.482;2023-11-21T05:30:46;9.65;;;2.80;;
35518;SDS011;21627;48.216;16.482;2023-11-21T05:33:13;9.90;;;3.03;;
35518;SDS011;21627;48.216;16.482;2023-11-21T05:35:40;7.88;;;2.55;;
35518;SDS011;21627;48.216;16.482;2023-11-21T05:38:07;11.50;;;3.00;;
35518;SDS011;21627;48.216;16.482;2023-11-21T05:40:34;9.30;;;2.83;;
35518;SDS011;21627;48.216;16.482;2023-11-21T05:43:03;7.82;;;3.28;;
35518;SDS011;21627;48.216;16.482;2023-11-21T05:45:31;9.85;;;3.50;;
35518;SDS011;21627;48.216;16.482;2023-11-21T05:47:58;10.70;;;3.53;;
35518;SDS011;21627;48.216;16.482;2023-11-21T05:50:26;11.07;;;3.65;;
35518;SDS011;21627;48.216;16.482;2023-11-21T05:52:54;13.90;;;3.33;;
35518;SDS011;21627;48.216;16.482;2023-11-21T05:55:22;7.05;;;3.53;;
35518;SDS011;21627;48.216;16.482;2023-11-21T05:57:52;10.85;;;3.40;;
35518;SDS011;21627;48.216;16.482;2023-11-21T06:00:20;9.07;;;3.42;;
35518;SDS011;21627;48.216;16.482;2023-11-21T06:02:52;14.32;;;3.55;;
35518;SDS011;21627;48.216;16.482;2023-11-21T06:05:22;13.23;;;3.53;;
35518;SDS011;21627;48.216;16.482;2023-11-21T06:07:52;14.50;;;4.40;;
35518;SDS011;21627;48.216;16.482;2023-11-21T06:10:25;9.57;;;3.40;;
35518;SDS011;21627;48.216;16.482;2023-11-21T06:12:52;6.45;;;3.25;;
35518;SDS011;21627;48.216;16.482;2023-11-21T06:15:20;9.88;;;3.00;;
35518;SDS011;21627;48.216;16.482;2023-11-21T06:17:49;7.45;;;3.38;;
35518;SDS011;21627;48.216;16.482;2023-11-21T06:20:19;9.10;;;3.17;;
35518;SDS011;21627;48.216;16.482;2023-11-21T06:22:49;10.45;;;3.65;;
35518;SDS011;21627;48.216;16.482;2023-11-21T06:25:17;14.95;;;4.15;;
35518;SDS011;21627;48.216;16.482;2023-11-21T06:27:46;19.02;;;6.72;;
35518;SDS011;21627;48.216;16.482;2023-11-21T06:30:15;18.75;;;4.53;;
35518;SDS011;21627;48.216;16.482;2023-11-21T06:32:42;13.43;;;5.00;;
35518;SDS011;21627;48.216;16.482;2023-11-21T06:35:13;9.68;;;4.18;;
35518;SDS011;21627;48.216;16.482;2023-11-21T06:37:42;7.05;;;3.10;;
35518;SDS011;21627;48.216;16.482;2023-11-21T06:40:16;10.50;;;4.47;;
35518;SDS011;21627;48.216;16.482;2023-11-21T06:42:45;12.63;;;5.30;;
35518;SDS011;21627;48.216;16.482;2023-11-21T06:45:13;12.40;;;5.20;;
35518;SDS011;21627;48.216;16.482;2023-11-21T06:47:41;13.18;;;4.95;;
35518;SDS011;21627;48.216;16.482;2023-11-21T06:50:09;15.93;;;4.47;;
35518;SDS011;21627;48.216;16.482;2023-11-21T06:52:37;12.25;;;4.60;;
35518;SDS011;21627;48.216;16.482;2023-11-21T06:55:05;8.75;;;4.20;;
35518;SDS011;21627;48.216;16.482;2023-11-21T06:57:35;18.50;;;4.68;;
35518;SDS011;21627;48.216;16.482;2023-11-21T07:00:02;12.13;;;4.78;;
35518;SDS011;21627;48.216;16.482;2023-11-21T07:02:31;13.80;;;4.47;;
35518;SDS011;21627;48.216;16.482;2023-11-21T07:04:59;12.18;;;4.80;;
35518;SDS011;21627;48.216;16.482;2023-11-21T07:07:27;15.13;;;4.07;;
35518;SDS011;21627;48.216;16.482;2023-11-21T07:09:54;14.10;;;5.63;;
35518;SDS011;21627;48.216;16.482;2023-11-21T07:12:21;13.57;;;5.18;;
35518;SDS011;21627;48.216;16.482;2023-11-21T07:14:50;12.57;;;4.65;;
35518;SDS011;21627;48.216;16.482;2023-11-21T07:17:17;16.60;;;5.00;;
35518;SDS011;21627;48.216;16.482;2023-11-21T07:19:44;15.35;;;5.15;;
35518;SDS011;21627;48.216;16.482;2023-11-21T07:22:11;14.23;;;5.30;;
35518;SDS011;21627;48.216;16.482;2023-11-21T07:24:40;15.75;;;5.78;;
35518;SDS011;21627;48.216;16.482;2023-11-21T07:27:07;19.85;;;6.43;;
35518;SDS011;21627;48.216;16.482;2023-11-21T07:29:34;14.68;;;5.85;;
35518;SDS011;21627;48.216;16.482;2023-11-21T07:32:01;23.48;;;7.75;;
35518;SDS011;21627;48.216;16.482;2023-11-21T07:34:29;19.33;;;6.88;;
35518;SDS011;21627;48.216;16.482;2023-11-21T07:36:56;22.60;;;7.28;;
35518;SDS011;21627;48.216;16.482;2023-11-21T07:39:23;19.23;;;7.10;;
35518;SDS011;21627;48.216;16.482;2023-11-21T07:41:50;19.25;;;7.10;;
35518;SDS011;21627;48.216;16.482;2023-11-21T07:44:17;15.20;;;6.22;;
35518;SDS011;21627;48.216;16.482;2023-11-21T07:46:46;29.33;;;6.70;;
35518;SDS011;21627;48.216;16.482;2023-11-21T07:49:13;20.52;;;6.15;;
35518;SDS011;21627;48.216;16.482;2023-11-21T07:51:47;22.83;;;5.93;;
35518;SDS011;21627;48.216;16.482;2023-11-21T07:54:14;18.50;;;5.97;;
35518;SDS011;21627;48.216;16.482;2023-11-21T07:56:42;17.98;;;6.82;;
35518;SDS011;21627;48.216;16.482;2023-11-21T07:59:09;22.38;;;8.15;;
35518;SDS011;21627;48.216;16.482;2023-11-21T08:01:37;24.83;;;7.68;;
35518;SDS011;21627;48.216;16.482;2023-11-21T08:04:06;29.83;;;7.68;;
35518;SDS011;21627;48.216;16.482;2023-11-21T08:06:34;18.73;;;6.68;;
35518;SDS011;21627;48.216;16.482;2023-11-21T08:09:01;23.05;;;7.03;;
35518;SDS011;21627;48.216;16.482;2023-11-21T08:11:29;13.75;;;6.28;;
35518;SDS011;21627;48.216;16.482;2023-11-21T08:13:58;16.77;;;5.97;;
35518;SDS011;21627;48.216;16.482;2023-11-21T08:16:26;16.08;;;6.55;;
35518;SDS011;21627;48.216;16.482;2023-11-21T08:18:54;16.88;;;5.75;;
35518;SDS011;21627;48.216;16.482;2023-11-21T08:21:21;21.23;;;4.97;;
35518;SDS011;21627;48.216;16.482;2023-11-21T08:23:51;17.95;;;5.53;;
35518;SDS011;21627;48.216;16.482;2023-11-21T08:26:21;14.93;;;4.80;;
35518;SDS011;21627;48.216;16.482;2023-11-21T08:28:49;15.15;;;5.05;;
35518;SDS011;21627;48.216;16.482;2023-11-21T08:31:23;27.75;;;6.93;;
35518;SDS011;21627;48.216;16.482;2023-11-21T08:33:52;15.00;;;6.18;;
35518;SDS011;21627;48.216;16.482;2023-11-21T08:36:22;20.67;;;6.60;;
35518;SDS011;21627;48.216;16.482;2023-11-21T08:38:50;24.23;;;7.35;;
35518;SDS011;21627;48.216;16.482;2023-11-21T08:41:18;24.08;;;8.07;;
35518;SDS011;21627;48.216;16.482;2023-11-21T08:43:48;19.48;;;6.63;;
35518;SDS011;21627;48.216;16.482;2023-11-21T08:46:18;25.95;;;6.85;;
35518;SDS011;21627;48.216;16.482;2023-11-21T08:48:46;27.48;;;7.18;;
35518;SDS011;21627;48.216;16.482;2023-11-21T08:51:13;13.73;;;5.35;;
35518;SDS011;21627;48.216;16.482;2023-11-21T08:53:40;12.55;;;4.80;;
35518;SDS011;21627;48.216;16.482;2023-11-21T08:56:08;10.23;;;3.75;;
35518;SDS011;21627;48.216;16.482;2023-11-21T08:58:40;13.43;;;4.75;;
35518;SDS011;21627;48.216;16.482;2023-11-21T09:01:08;18.55;;;4.72;;
35518;SDS011;21627;48.216;16.482;2023-11-21T09:03:35;16.02;;;4.97;;
35518;SDS011;21627;48.216;16.482;2023-11-21T09:06:03;11.65;;;4.50;;
35518;SDS011;21627;48.216;16.482;2023-11-21T09:08:30;16.08;;;3.95;;
35518;SDS011;21627;48.216;16.482;2023-11-21T09:10:58;18.13;;;4.35;;
35518;SDS011;21627;48.216;16.482;2023-11-21T09:13:25;11.90;;;3.60;;
35518;SDS011;21627;48.216;16.482;2023-11-21T09:15:53;22.02;;;4.10;;
35518;SDS011;21627;48.216;16.482;2023-11-21T09:18:20;22.40;;;4.93;;
35518;SDS011;21627;48.216;16.482;2023-11-21T09:20:47;20.30;;;5.70;;
35518;SDS011;21627;48.216;16.482;2023-11-21T09:23:14;15.07;;;4.60;;
35518;SDS011;21627;48.216;16.482;2023-11-21T09:25:42;20.42;;;6.28;;
35518;SDS011;21627;48.216;16.482;2023-11-21T09:28:12;23.85;;;7.22;;
35518;SDS011;21627;48.216;16.482;2023-11-21T09:30:39;17.77;;;6.10;;
35518;SDS011;21627;48.216;16.482;2023-11-21T09:33:06;12.95;;;4.63;;
35518;SDS011;21627;48.216;16.482;2023-11-21T09:35:37;20.85;;;7.43;;
35518;SDS011;21627;48.216;16.482;2023-11-21T09:38:04;12.93;;;5.93;;
35518;SDS011;21627;48.216;16.482;2023-11-21T09:40:36;18.25;;;5.18;;
35518;SDS011;21627;48.216;16.482;2023-11-21T09:43:17;15.13;;;4.68;;
35518;SDS011;21627;48.216;16.482;2023-11-21T09:45:45;14.70;;;5.18;;
35518;SDS011;21627;48.216;16.482;2023-11-21T09:48:14;16.35;;;5.45;;
35518;SDS011;21627;48.216;16.482;2023-11-21T09:50:43;13.32;;;5.00;;
35518;SDS011;21627;48.216;16.482;2023-11-21T09:53:19;13.90;;;5.10;;
35518;SDS011;21627;48.216;16.482;2023-11-21T09:55:50;16.65;;;4.75;;
35518;SDS011;21627;48.216;16.482;2023-11-21T09:58:19;15.60;;;5.22;;
35518;SDS011;21627;48.216;16.482;2023-11-21T10:00:52;21.70;;;5.10;;
35518;SDS011;21627;48.216;16.482;2023-11-21T10:03:23;14.95;;;5.05;;
35518;SDS011;21627;48.216;16.482;2023-11-21T10:05:51;12.95;;;5.13;;
35518;SDS011;21627;48.216;16.482;2023-11-21T10:08:22;17.20;;;4.38;;
35518;SDS011;21627;48.216;16.482;2023-11-21T10:10:51;14.85;;;3.50;;
35518;SDS011;21627;48.216;16.482;2023-11-21T10:13:20;12.35;;;3.80;;
35518;SDS011;21627;48.216;16.482;2023-11-21T10:15:49;11.48;;;3.30;;
35518;SDS011;21627;48.216;16.482;2023-11-21T10:18:19;11.82;;;3.67;;
35518;SDS011;21627;48.216;16.482;2023-11-21T10:20:49;14.45;;;3.78;;
35518;SDS011;21627;48.216;16.482;2023-11-21T10:23:21;7.00;;;2.83;;
35518;SDS011;21627;48.216;16.482;2023-11-21T10:25:53;5.25;;;2.42;;
35518;SDS011;21627;48.216;16.482;2023-11-21T10:28:23;7.32;;;2.40;;
35518;SDS011;21627;48.216;16.482;2023-11-21T10:30:51;11.75;;;3.22;;
35518;SDS011;21627;48.216;16.482;2023-11-21T10:33:20;11.68;;;2.95;;
35518;SDS011;21627;48.216;16.482;2023-11-21T10:35:55;5.18;;;2.25;;
35518;SDS011;21627;48.216;16.482;2023-11-21T10:38:22;14.32;;;3.78;;
35518;SDS011;21627;48.216;16.482;2023-11-21T10:40:51;15.50;;;5.60;;
35518;SDS011;21627;48.216;16.482;2023-11-21T10:43:19;13.48;;;4.82;;
35518;SDS011;21627;48.216;16.482;2023-11-21T10:45:46;11.95;;;4.70;;
35518;SDS011;21627;48.216;16.482;2023-11-21T10:48:14;17.92;;;4.95;;
35518;SDS011;21627;48.216;16.482;2023-11-21T10:50:43;20.55;;;5.80;;
35518;SDS011;21627;48.216;16.482;2023-11-21T10:53:14;16.13;;;5.03;;
35518;SDS011;21627;48.216;16.482;2023-11-21T10:55:41;13.32;;;4.75;;
35518;SDS011;21627;48.216;16.482;2023-11-21T10:58:11;13.98;;;4.18;;
35518;SDS011;21627;48.216;16.482;2023-11-21T11:00:41;6.28;;;1.50;;
35518;SDS011;21627;48.216;16.482;2023-11-21T11:03:11;7.78;;;1.30;;
35518;SDS011;21627;48.216;16.482;2023-11-21T11:05:46;3.17;;;1.42;;
35518;SDS011;21627;48.216;16.482;2023-11-21T11:08:20;7.13;;;2.30;;
35518;SDS011;21627;48.216;16.482;2023-11-21T11:10:54;11.45;;;3.50;;
35518;SDS011;21627;48.216;16.482;2023-11-21T11:13:22;13.90;;;2.53;;
35518;SDS011;21627;48.216;16.482;2023-11-21T11:15:50;11.35;;;2.10;;
35518;SDS011;21627;48.216;16.482;2023-11-21T11:18:25;7.65;;;1.38;;
35518;SDS011;21627;48.216;16.482;2023-11-21T11:20:53;5.65;;;1.45;;
35518;SDS011;21627;48.216;16.482;2023-11-21T11:23:40;5.18;;;1.58;;
35518;SDS011;21627;48.216;16.482;2023-11-21T11:26:31;2.30;;;1.25;;
35518;SDS011;21627;48.216;16.482;2023-11-21T11:35:34;4.72;;;1.88;;
35518;SDS011;21627;48.216;16.482;2023-11-21T11:38:32;3.20;;;1.45;;
35518;SDS011;21627;48.216;16.482;2023-11-21T11:41:03;8.25;;;1.80;;
35518;SDS011;21627;48.216;16.482;2023-11-21T11:43:32;4.82;;;1.58;;
35518;SDS011;21627;48.216;16.482;2023-11-21T11:46:02;2.97;;;1.20;;
35518;SDS011;21627;48.216;16.482;2023-11-21T11:48:30;6.78;;;1.50;;
35518;SDS011;21627;48.216;16.482;2023-11-21T11:51:09;7.60;;;1.70;;
35518;SDS011;21627;48.216;16.482;2023-11-21T11:53:44;8.45;;;2.03;;
35518;SDS011;21627;48.216;16.482;2023-11-21T11:56:29;5.85;;;1.48;;
35518;SDS011;21627;48.216;16.482;2023-11-21T11:59:01;3.72;;;1.45;;
35518;SDS011;21627;48.216;16.482;2023-11-21T12:01:31;3.22;;;1.30;;
35518;SDS011;21627;48.216;16.482;2023-11-21T12:06:53;5.88;;;1.55;;
35518;SDS011;21627;48.216;16.482;2023-11-21T12:09:23;9.23;;;1.88;;
35518;SDS011;21627;48.216;16.482;2023-11-21T12:11:50;5.40;;;1.73;;
35518;SDS011;21627;48.216;16.482;2023-11-21T12:14:18;5.88;;;1.52;;
35518;SDS011;21627;48.216;16.482;2023-11-21T12:16:45;5.50;;;1.52;;
35518;SDS011;21627;48.216;16.482;2023-11-21T12:19:12;6.03;;;1.90;;
35518;SDS011;21627;48.216;16.482;2023-11-21T12:21:39;3.10;;;1.30;;
35518;SDS011;21627;48.216;16.482;2023-11-21T12:24:10;7.05;;;1.40;;
35518;SDS011;21627;48.216;16.482;2023-11-21T12:26:41;5.63;;;1.75;;
35518;SDS011;21627;48.216;16.482;2023-11-21T12:29:09;9.65;;;1.70;;
35518;SDS011;21627;48.216;16.482;2023-11-21T12:31:37;8.00;;;1.73;;
35518;SDS011;21627;48.216;16.482;2023-11-21T12:34:04;7.68;;;1.80;;
35518;SDS011;21627;48.216;16.482;2023-11-21T12:36:33;5.70;;;1.70;;
35518;SDS011;21627;48.216;16.482;2023-11-21T12:39:02;5.05;;;1.65;;
35518;SDS011;21627;48.216;16.482;2023-11-21T12:41:29;9.55;;;1.48;;
35518;SDS011;21627;48.216;16.482;2023-11-21T12:43:57;3.83;;;1.30;;
35518;SDS011;21627;48.216;16.482;2023-11-21T12:46:25;3.05;;;1.30;;
35518;SDS011;21627;48.216;16.482;2023-11-21T12:48:56;7.20;;;1.67;;
35518;SDS011;21627;48.216;16.482;2023-11-21T12:51:24;4.85;;;1.75;;
35518;SDS011;21627;48.216;16.482;2023-11-21T12:53:51;6.93;;;2.00;;
35518;SDS011;21627;48.216;16.482;2023-11-21T12:56:21;5.68;;;1.80;;
35518;SDS011;21627;48.216;16.482;2023-11-21T12:58:49;4.32;;;1.90;;
35518;SDS011;21627;48.216;16.482;2023-11-21T13:01:20;6.70;;;1.80;;
35518;SDS011;21627;48.216;16.482;2023-11-21T13:03:53;4.45;;;1.50;;
35518;SDS011;21627;48.216;16.482;2023-11-21T13:06:20;4.60;;;1.77;;
35518;SDS011;21627;48.216;16.482;2023-11-21T13:08:51;3.78;;;1.40;;
35518;SDS011;21627;48.216;16.482;2023-11-21T13:11:18;11.98;;;1.77;;
35518;SDS011;21627;48.216;16.482;2023-11-21T13:13:46;8.82;;;1.80;;
35518;SDS011;21627;48.216;16.482;2023-11-21T13:16:13;6.45;;;1.50;;
35518;SDS011;21627;48.216;16.482;2023-11-21T13:18:41;4.03;;;1.52;;
35518;SDS011;21627;48.216;16.482;2023-11-21T13:21:10;3.30;;;1.42;;
35518;SDS011;21627;48.216;16.482;2023-11-21T13:23:41;4.85;;;1.70;;
35518;SDS011;21627;48.216;16.482;2023-11-21T13:26:12;4.10;;;1.45;;
35518;SDS011;21627;48.216;16.482;2023-11-21T13:28:47;5.32;;;1.60;;
35518;SDS011;21627;48.216;16.482;2023-11-21T13:31:14;4.57;;;1.55;;
35518;SDS011;21627;48.216;16.482;2023-11-21T13:33:49;4.93;;;1.70;;
35518;SDS011;21627;48.216;16.482;2023-11-21T13:36:30;4.35;;;1.50;;
35518;SDS011;21627;48.216;16.482;2023-11-21T13:39:00;4.07;;;1.65;;
35518;SDS011;21627;48.216;16.482;2023-11-21T13:41:33;5.03;;;1.73;;
35518;SDS011;21627;48.216;16.482;2023-11-21T13:44:01;5.32;;;1.58;;
35518;SDS011;21627;48.216;16.482;2023-11-21T13:46:53;6.18;;;1.85;;
35518;SDS011;21627;48.216;16.482;2023-11-21T13:49:22;5.03;;;1.75;;
35518;SDS011;21627;48.216;16.482;2023-11-21T13:51:50;6.25;;;2.08;;
35518;SDS011;21627;48.216;16.482;2023-11-21T13:54:19;9.82;;;1.45;;
35518;SDS011;21627;48.216;16.482;2023-11-21T13:56:50;9.07;;;1.95;;
35518;SDS011;21627;48.216;16.482;2023-11-21T13:59:17;3.40;;;1.73;;
35518;SDS011;21627;48.216;16.482;2023-11-21T14:01:51;6.80;;;1.88;;
35518;SDS011;21627;48.216;16.482;2023-11-21T14:04:23;10.18;;;1.85;;
35518;SDS011;21627;48.216;16.482;2023-11-21T14:06:56;10.23;;;1.80;;
35518;SDS011;21627;48.216;16.482;2023-11-21T14:09:27;7.45;;;2.33;;
35518;SDS011;21627;48.216;16.482;2023-11-21T14:12:02;5.70;;;2.13;;
35518;SDS011;21627;48.216;16.482;2023-11-21T14:14:35;6.22;;;2.00;;
35518;SDS011;21627;48.216;16.482;2023-11-21T14:17:02;6.13;;;1.75;;
35518;SDS011;21627;48.216;16.482;2023-11-21T14:19:33;6.55;;;1.83;;
35518;SDS011;21627;48.216;16.482;2023-11-21T14:22:03;5.75;;;1.65;;
35518;SDS011;21627;48.216;16.482;2023-11-21T14:24:30;6.40;;;1.60;;
35518;SDS011;21627;48.216;16.482;2023-11-21T14:26:58;3.10;;;1.50;;
35518;SDS011;21627;48.216;16.482;2023-11-21T14:29:26;6.53;;;2.00;;
35518;SDS011;21627;48.216;16.482;2023-11-21T14:31:55;5.53;;;1.95;;
35518;SDS011;21627;48.216;16.482;2023-11-21T14:34:24;5.03;;;1.83;;
35518;SDS011;21627;48.216;16.482;2023-11-21T14:36:53;5.60;;;2.03;;
35518;SDS011;21627;48.216;16.482;2023-11-21T14:39:21;4.72;;;1.88;;
35518;SDS011;21627;48.216;16.482;2023-11-21T14:41:54;5.10;;;1.90;;
35518;SDS011;21627;48.216;16.482;2023-11-21T14:44:24;8.52;;;2.25;;
35518;SDS011;21627;48.216;16.482;2023-11-21T14:46:55;6.93;;;1.60;;
35518;SDS011;21627;48.216;16.482;2023-11-21T14:49:25;3.40;;;1.52;;
35518;SDS011;21627;48.216;16.482;2023-11-21T14:51:54;4.35;;;1.88;;